sensor_id;sensor_type;location;lat;lon;timestamp;P1;durP1;ratioP1;P2;durP2;ratioP2
54263;SDS011;40178;53.042;6.406;2023-12-20T00:00:36;15.27;;;2.38;;
54263;SDS011;40178;53.042;6.406;2023-12-20T00:03:02;9.55;;;2.13;;
54263;SDS011;40178;53.042;6.406;2023-12-20T00:05:29;8.23;;;2.03;;
54263;SDS011;40178;53.042;6.406;2023-12-20T00:07:57;11.07;;;1.88;;
54263;SDS011;40178;53.042;6.406;2023-12-20T00:10:23;9.00;;;2.10;;
54263;SDS011;40178;53.042;6.406;2023-12-20T00:12:48;10.95;;;2.25;;
54263;SDS011;40178;53.042;6.406;2023-12-20T00:15:14;15.88;;;1.88;;
54263;SDS011;40178;53.042;6.406;2023-12-20T00:17:39;11.82;;;2.00;;
54263;SDS011;40178;53.042;6.406;2023-12-20T00:20:05;12.73;;;1.75;;
54263;SDS011;40178;53.042;6.406;2023-12-20T00:22:31;9.82;;;1.58;;
54263;SDS011;40178;53.042;6.406;2023-12-20T00:24:57;12.70;;;2.17;;
54263;SDS011;40178;53.042;6.406;2023-12-20T00:27:22;10.45;;;1.83;;
54263;SDS011;40178;53.042;6.406;2023-12-20T00:29:48;10.10;;;2.30;;
54263;SDS011;40178;53.042;6.406;2023-12-20T00:32:15;12.95;;;2.38;;
54263;SDS011;40178;53.042;6.406;2023-12-20T00:34:41;13.05;;;2.13;;
54263;SDS011;40178;53.042;6.406;2023-12-20T00:37:08;15.10;;;2.38;;
54263;SDS011;40178;53.042;6.406;2023-12-20T00:39:34;9.75;;;1.95;;
54263;SDS011;40178;53.042;6.406;2023-12-20T00:41:59;16.35;;;2.75;;
54263;SDS011;40178;53.042;6.406;2023-12-20T00:44:25;10.82;;;2.70;;
54263;SDS011;40178;53.042;6.406;2023-12-20T00:46:51;11.45;;;2.05;;
54263;SDS011;40178;53.042;6.406;2023-12-20T00:49:17;12.18;;;2.15;;
54263;SDS011;40178;53.042;6.406;2023-12-20T00:51:42;12.82;;;2.13;;
54263;SDS011;40178;53.042;6.406;2023-12-20T00:54:08;10.70;;;2.60;;
54263;SDS011;40178;53.042;6.406;2023-12-20T00:56:34;8.18;;;1.85;;
54263;SDS011;40178;53.042;6.406;2023-12-20T00:59:00;10.60;;;2.50;;
54263;SDS011;40178;53.042;6.406;2023-12-20T01:01:26;15.52;;;2.30;;
54263;SDS011;40178;53.042;6.406;2023-12-20T01:03:51;11.93;;;1.85;;
54263;SDS011;40178;53.042;6.406;2023-12-20T01:06:17;14.02;;;2.47;;
54263;SDS011;40178;53.042;6.406;2023-12-20T01:08:44;12.75;;;2.28;;
54263;SDS011;40178;53.042;6.406;2023-12-20T01:11:09;11.30;;;3.05;;
54263;SDS011;40178;53.042;6.406;2023-12-20T01:13:35;19.50;;;2.30;;
54263;SDS011;40178;53.042;6.406;2023-12-20T01:16:01;9.75;;;2.53;;
54263;SDS011;40178;53.042;6.406;2023-12-20T01:18:27;9.95;;;2.33;;
54263;SDS011;40178;53.042;6.406;2023-12-20T01:20:53;15.88;;;2.90;;
54263;SDS011;40178;53.042;6.406;2023-12-20T01:23:18;14.32;;;2.55;;
54263;SDS011;40178;53.042;6.406;2023-12-20T01:25:44;12.75;;;2.72;;
54263;SDS011;40178;53.042;6.406;2023-12-20T01:28:09;11.27;;;2.85;;
54263;SDS011;40178;53.042;6.406;2023-12-20T01:30:35;13.38;;;3.03;;
54263;SDS011;40178;53.042;6.406;2023-12-20T01:33:01;13.70;;;2.97;;
54263;SDS011;40178;53.042;6.406;2023-12-20T01:35:26;15.10;;;2.95;;
54263;SDS011;40178;53.042;6.406;2023-12-20T01:37:52;9.50;;;2.80;;
54263;SDS011;40178;53.042;6.406;2023-12-20T01:40:21;15.23;;;3.05;;
54263;SDS011;40178;53.042;6.406;2023-12-20T01:42:47;13.20;;;2.30;;
54263;SDS011;40178;53.042;6.406;2023-12-20T01:45:22;9.32;;;2.17;;
54263;SDS011;40178;53.042;6.406;2023-12-20T01:47:48;9.82;;;2.38;;
54263;SDS011;40178;53.042;6.406;2023-12-20T01:50:14;12.52;;;2.65;;
54263;SDS011;40178;53.042;6.406;2023-12-20T01:52:41;11.13;;;2.50;;
54263;SDS011;40178;53.042;6.406;2023-12-20T01:55:07;12.30;;;2.95;;
54263;SDS011;40178;53.042;6.406;2023-12-20T01:57:38;17.10;;;3.47;;
54263;SDS011;40178;53.042;6.406;2023-12-20T02:00:06;16.05;;;3.10;;
54263;SDS011;40178;53.042;6.406;2023-12-20T02:02:33;11.48;;;2.70;;
54263;SDS011;40178;53.042;6.406;2023-12-20T02:04:59;12.75;;;2.97;;
54263;SDS011;40178;53.042;6.406;2023-12-20T02:07:25;11.38;;;3.13;;
54263;SDS011;40178;53.042;6.406;2023-12-20T02:09:51;11.90;;;2.42;;
54263;SDS011;40178;53.042;6.406;2023-12-20T02:12:17;13.02;;;2.70;;
54263;SDS011;40178;53.042;6.406;2023-12-20T02:14:44;15.90;;;2.55;;
54263;SDS011;40178;53.042;6.406;2023-12-20T02:17:09;13.10;;;3.13;;
54263;SDS011;40178;53.042;6.406;2023-12-20T02:19:35;19.08;;;3.28;;
54263;SDS011;40178;53.042;6.406;2023-12-20T02:22:04;14.27;;;3.25;;
54263;SDS011;40178;53.042;6.406;2023-12-20T02:24:36;18.25;;;3.13;;
54263;SDS011;40178;53.042;6.406;2023-12-20T02:27:02;12.40;;;2.80;;
54263;SDS011;40178;53.042;6.406;2023-12-20T02:29:28;17.98;;;3.47;;
54263;SDS011;40178;53.042;6.406;2023-12-20T02:31:53;11.77;;;3.30;;
54263;SDS011;40178;53.042;6.406;2023-12-20T02:34:19;13.85;;;4.50;;
54263;SDS011;40178;53.042;6.406;2023-12-20T02:36:45;21.05;;;3.80;;
54263;SDS011;40178;53.042;6.406;2023-12-20T02:39:10;17.20;;;3.53;;
54263;SDS011;40178;53.042;6.406;2023-12-20T02:41:36;24.60;;;3.92;;
54263;SDS011;40178;53.042;6.406;2023-12-20T02:44:02;18.60;;;3.83;;
54263;SDS011;40178;53.042;6.406;2023-12-20T02:46:28;19.77;;;3.38;;
54263;SDS011;40178;53.042;6.406;2023-12-20T02:48:53;16.00;;;4.00;;
54263;SDS011;40178;53.042;6.406;2023-12-20T02:51:19;15.20;;;3.50;;
54263;SDS011;40178;53.042;6.406;2023-12-20T02:53:45;17.90;;;3.10;;
54263;SDS011;40178;53.042;6.406;2023-12-20T02:56:10;13.02;;;3.35;;
54263;SDS011;40178;53.042;6.406;2023-12-20T02:58:36;23.58;;;4.13;;
54263;SDS011;40178;53.042;6.406;2023-12-20T03:01:01;18.05;;;3.65;;
54263;SDS011;40178;53.042;6.406;2023-12-20T03:03:27;25.65;;;4.10;;
54263;SDS011;40178;53.042;6.406;2023-12-20T03:05:53;13.35;;;3.00;;
54263;SDS011;40178;53.042;6.406;2023-12-20T03:08:18;15.65;;;4.22;;
54263;SDS011;40178;53.042;6.406;2023-12-20T03:10:44;22.38;;;4.95;;
54263;SDS011;40178;53.042;6.406;2023-12-20T03:13:10;17.02;;;3.88;;
54263;SDS011;40178;53.042;6.406;2023-12-20T03:15:35;12.27;;;3.28;;
54263;SDS011;40178;53.042;6.406;2023-12-20T03:18:01;15.07;;;3.55;;
54263;SDS011;40178;53.042;6.406;2023-12-20T03:20:27;22.05;;;3.63;;
54263;SDS011;40178;53.042;6.406;2023-12-20T03:22:52;15.43;;;4.22;;
54263;SDS011;40178;53.042;6.406;2023-12-20T03:25:18;20.15;;;4.45;;
54263;SDS011;40178;53.042;6.406;2023-12-20T03:27:43;18.92;;;3.47;;
54263;SDS011;40178;53.042;6.406;2023-12-20T03:30:09;19.17;;;4.13;;
54263;SDS011;40178;53.042;6.406;2023-12-20T03:32:35;15.50;;;3.35;;
54263;SDS011;40178;53.042;6.406;2023-12-20T03:35:02;16.70;;;3.47;;
54263;SDS011;40178;53.042;6.406;2023-12-20T03:37:28;17.50;;;3.72;;
54263;SDS011;40178;53.042;6.406;2023-12-20T03:39:54;15.73;;;3.47;;
54263;SDS011;40178;53.042;6.406;2023-12-20T03:42:19;14.68;;;3.80;;
54263;SDS011;40178;53.042;6.406;2023-12-20T03:44:45;19.70;;;4.25;;
54263;SDS011;40178;53.042;6.406;2023-12-20T03:47:11;19.20;;;3.70;;
54263;SDS011;40178;53.042;6.406;2023-12-20T03:49:36;26.13;;;4.35;;
54263;SDS011;40178;53.042;6.406;2023-12-20T03:52:03;16.50;;;3.85;;
54263;SDS011;40178;53.042;6.406;2023-12-20T03:54:29;17.80;;;3.40;;
54263;SDS011;40178;53.042;6.406;2023-12-20T03:56:55;16.25;;;3.70;;
54263;SDS011;40178;53.042;6.406;2023-12-20T03:59:21;23.05;;;4.40;;
54263;SDS011;40178;53.042;6.406;2023-12-20T04:01:46;20.85;;;3.95;;
54263;SDS011;40178;53.042;6.406;2023-12-20T04:04:12;17.15;;;3.92;;
54263;SDS011;40178;53.042;6.406;2023-12-20T04:06:38;16.85;;;3.58;;
54263;SDS011;40178;53.042;6.406;2023-12-20T04:09:04;16.35;;;4.05;;
54263;SDS011;40178;53.042;6.406;2023-12-20T04:11:30;24.23;;;4.32;;
54263;SDS011;40178;53.042;6.406;2023-12-20T04:13:56;26.67;;;3.70;;
54263;SDS011;40178;53.042;6.406;2023-12-20T04:16:21;17.15;;;3.90;;
54263;SDS011;40178;53.042;6.406;2023-12-20T04:18:47;13.18;;;3.70;;
54263;SDS011;40178;53.042;6.406;2023-12-20T04:21:12;14.23;;;2.83;;
54263;SDS011;40178;53.042;6.406;2023-12-20T04:23:38;17.55;;;3.22;;
54263;SDS011;40178;53.042;6.406;2023-12-20T04:26:04;16.48;;;3.85;;
54263;SDS011;40178;53.042;6.406;2023-12-20T04:28:29;12.43;;;3.78;;
54263;SDS011;40178;53.042;6.406;2023-12-20T04:30:55;22.75;;;3.28;;
54263;SDS011;40178;53.042;6.406;2023-12-20T04:33:21;14.02;;;3.42;;
54263;SDS011;40178;53.042;6.406;2023-12-20T04:35:47;17.40;;;3.10;;
54263;SDS011;40178;53.042;6.406;2023-12-20T04:38:13;16.25;;;3.92;;
54263;SDS011;40178;53.042;6.406;2023-12-20T04:40:39;16.77;;;3.80;;
54263;SDS011;40178;53.042;6.406;2023-12-20T04:43:06;17.35;;;4.18;;
54263;SDS011;40178;53.042;6.406;2023-12-20T04:45:32;16.83;;;3.55;;
54263;SDS011;40178;53.042;6.406;2023-12-20T04:47:57;21.35;;;3.53;;
54263;SDS011;40178;53.042;6.406;2023-12-20T04:50:23;16.27;;;3.25;;
54263;SDS011;40178;53.042;6.406;2023-12-20T04:52:49;21.67;;;3.70;;
54263;SDS011;40178;53.042;6.406;2023-12-20T04:55:14;22.85;;;3.90;;
54263;SDS011;40178;53.042;6.406;2023-12-20T04:57:40;21.10;;;4.28;;
54263;SDS011;40178;53.042;6.406;2023-12-20T05:00:06;14.82;;;3.42;;
54263;SDS011;40178;53.042;6.406;2023-12-20T05:02:33;16.63;;;3.40;;
54263;SDS011;40178;53.042;6.406;2023-12-20T05:05:00;15.43;;;3.78;;
54263;SDS011;40178;53.042;6.406;2023-12-20T05:07:25;13.38;;;3.33;;
54263;SDS011;40178;53.042;6.406;2023-12-20T05:09:51;21.92;;;3.75;;
54263;SDS011;40178;53.042;6.406;2023-12-20T05:12:17;16.67;;;3.72;;
54263;SDS011;40178;53.042;6.406;2023-12-20T05:14:42;16.40;;;3.50;;
54263;SDS011;40178;53.042;6.406;2023-12-20T05:17:08;18.33;;;3.22;;
54263;SDS011;40178;53.042;6.406;2023-12-20T05:19:33;19.30;;;3.60;;
54263;SDS011;40178;53.042;6.406;2023-12-20T05:22:00;13.55;;;2.80;;
54263;SDS011;40178;53.042;6.406;2023-12-20T05:24:27;17.27;;;3.50;;
54263;SDS011;40178;53.042;6.406;2023-12-20T05:26:53;13.30;;;3.15;;
54263;SDS011;40178;53.042;6.406;2023-12-20T05:29:18;15.43;;;3.55;;
54263;SDS011;40178;53.042;6.406;2023-12-20T05:31:44;12.80;;;3.13;;
54263;SDS011;40178;53.042;6.406;2023-12-20T05:34:10;15.20;;;3.63;;
54263;SDS011;40178;53.042;6.406;2023-12-20T05:36:36;14.95;;;3.58;;
54263;SDS011;40178;53.042;6.406;2023-12-20T05:39:02;15.05;;;3.30;;
54263;SDS011;40178;53.042;6.406;2023-12-20T05:41:32;14.48;;;3.63;;
54263;SDS011;40178;53.042;6.406;2023-12-20T05:43:58;15.95;;;3.33;;
54263;SDS011;40178;53.042;6.406;2023-12-20T05:46:24;16.98;;;3.33;;
54263;SDS011;40178;53.042;6.406;2023-12-20T05:48:50;12.60;;;3.08;;
54263;SDS011;40178;53.042;6.406;2023-12-20T05:51:16;14.35;;;3.00;;
54263;SDS011;40178;53.042;6.406;2023-12-20T05:53:42;16.63;;;3.85;;
54263;SDS011;40178;53.042;6.406;2023-12-20T05:56:09;15.40;;;3.13;;
54263;SDS011;40178;53.042;6.406;2023-12-20T05:58:35;12.77;;;2.88;;
54263;SDS011;40178;53.042;6.406;2023-12-20T06:01:01;16.90;;;3.78;;
54263;SDS011;40178;53.042;6.406;2023-12-20T06:03:28;13.93;;;4.07;;
54263;SDS011;40178;53.042;6.406;2023-12-20T06:05:54;13.98;;;3.30;;
54263;SDS011;40178;53.042;6.406;2023-12-20T06:08:20;16.25;;;3.28;;
54263;SDS011;40178;53.042;6.406;2023-12-20T06:10:45;18.95;;;3.92;;
54263;SDS011;40178;53.042;6.406;2023-12-20T06:13:11;15.38;;;3.70;;
54263;SDS011;40178;53.042;6.406;2023-12-20T06:15:38;14.95;;;3.25;;
54263;SDS011;40178;53.042;6.406;2023-12-20T06:18:05;15.18;;;3.40;;
54263;SDS011;40178;53.042;6.406;2023-12-20T06:20:32;12.77;;;3.50;;
54263;SDS011;40178;53.042;6.406;2023-12-20T06:22:58;14.57;;;3.22;;
54263;SDS011;40178;53.042;6.406;2023-12-20T06:25:24;13.88;;;2.95;;
54263;SDS011;40178;53.042;6.406;2023-12-20T06:27:50;20.20;;;3.67;;
54263;SDS011;40178;53.042;6.406;2023-12-20T06:30:15;17.42;;;3.30;;
54263;SDS011;40178;53.042;6.406;2023-12-20T06:32:41;15.38;;;2.88;;
54263;SDS011;40178;53.042;6.406;2023-12-20T06:35:08;24.38;;;3.75;;
54263;SDS011;40178;53.042;6.406;2023-12-20T06:37:34;13.60;;;3.40;;
54263;SDS011;40178;53.042;6.406;2023-12-20T06:40:00;17.17;;;3.47;;
54263;SDS011;40178;53.042;6.406;2023-12-20T06:42:25;24.00;;;4.40;;
54263;SDS011;40178;53.042;6.406;2023-12-20T06:44:51;12.40;;;3.83;;
54263;SDS011;40178;53.042;6.406;2023-12-20T06:47:16;20.60;;;3.78;;
54263;SDS011;40178;53.042;6.406;2023-12-20T06:49:42;20.80;;;3.28;;
54263;SDS011;40178;53.042;6.406;2023-12-20T06:52:08;15.23;;;3.08;;
54263;SDS011;40178;53.042;6.406;2023-12-20T06:54:33;16.75;;;4.32;;
54263;SDS011;40178;53.042;6.406;2023-12-20T06:56:59;12.35;;;3.45;;
54263;SDS011;40178;53.042;6.406;2023-12-20T06:59:25;13.77;;;3.72;;
54263;SDS011;40178;53.042;6.406;2023-12-20T07:01:51;23.10;;;4.00;;
54263;SDS011;40178;53.042;6.406;2023-12-20T07:04:17;15.95;;;3.75;;
54263;SDS011;40178;53.042;6.406;2023-12-20T07:06:47;13.40;;;3.42;;
54263;SDS011;40178;53.042;6.406;2023-12-20T07:09:16;25.33;;;3.63;;
54263;SDS011;40178;53.042;6.406;2023-12-20T07:11:41;16.67;;;3.95;;
54263;SDS011;40178;53.042;6.406;2023-12-20T07:14:07;18.90;;;4.43;;
54263;SDS011;40178;53.042;6.406;2023-12-20T07:16:33;22.75;;;3.95;;
54263;SDS011;40178;53.042;6.406;2023-12-20T07:19:00;12.57;;;3.83;;
54263;SDS011;40178;53.042;6.406;2023-12-20T07:21:25;13.93;;;3.30;;
54263;SDS011;40178;53.042;6.406;2023-12-20T07:23:51;20.27;;;3.67;;
54263;SDS011;40178;53.042;6.406;2023-12-20T07:26:17;21.13;;;4.13;;
54263;SDS011;40178;53.042;6.406;2023-12-20T07:28:42;15.05;;;4.43;;
54263;SDS011;40178;53.042;6.406;2023-12-20T07:31:08;14.60;;;3.15;;
54263;SDS011;40178;53.042;6.406;2023-12-20T07:33:33;18.60;;;4.43;;
54263;SDS011;40178;53.042;6.406;2023-12-20T07:35:59;17.13;;;3.72;;
54263;SDS011;40178;53.042;6.406;2023-12-20T07:38:25;19.52;;;5.22;;
54263;SDS011;40178;53.042;6.406;2023-12-20T07:40:51;13.82;;;3.47;;
54263;SDS011;40178;53.042;6.406;2023-12-20T07:43:17;15.43;;;3.90;;
54263;SDS011;40178;53.042;6.406;2023-12-20T07:45:42;13.35;;;4.05;;
54263;SDS011;40178;53.042;6.406;2023-12-20T07:48:08;17.27;;;4.63;;
54263;SDS011;40178;53.042;6.406;2023-12-20T07:50:34;16.25;;;4.80;;
54263;SDS011;40178;53.042;6.406;2023-12-20T07:52:59;20.02;;;3.92;;
54263;SDS011;40178;53.042;6.406;2023-12-20T07:55:26;16.08;;;3.60;;
54263;SDS011;40178;53.042;6.406;2023-12-20T07:57:52;18.05;;;3.60;;
54263;SDS011;40178;53.042;6.406;2023-12-20T08:00:18;11.95;;;3.92;;
54263;SDS011;40178;53.042;6.406;2023-12-20T08:02:44;21.02;;;4.40;;
54263;SDS011;40178;53.042;6.406;2023-12-20T08:05:10;16.15;;;3.60;;
54263;SDS011;40178;53.042;6.406;2023-12-20T08:07:35;12.40;;;3.20;;
54263;SDS011;40178;53.042;6.406;2023-12-20T08:10:01;20.40;;;4.00;;
54263;SDS011;40178;53.042;6.406;2023-12-20T08:12:27;17.65;;;3.53;;
54263;SDS011;40178;53.042;6.406;2023-12-20T08:14:53;14.73;;;3.17;;
54263;SDS011;40178;53.042;6.406;2023-12-20T08:17:19;12.18;;;3.20;;
54263;SDS011;40178;53.042;6.406;2023-12-20T08:19:45;14.80;;;2.92;;
54263;SDS011;40178;53.042;6.406;2023-12-20T08:22:11;15.40;;;4.00;;
54263;SDS011;40178;53.042;6.406;2023-12-20T08:24:36;14.48;;;3.45;;
54263;SDS011;40178;53.042;6.406;2023-12-20T08:27:03;9.02;;;2.63;;
54263;SDS011;40178;53.042;6.406;2023-12-20T08:29:29;19.30;;;3.15;;
54263;SDS011;40178;53.042;6.406;2023-12-20T08:31:55;12.43;;;2.03;;
54263;SDS011;40178;53.042;6.406;2023-12-20T08:34:21;9.15;;;2.05;;
54263;SDS011;40178;53.042;6.406;2023-12-20T08:36:48;16.10;;;2.33;;
54263;SDS011;40178;53.042;6.406;2023-12-20T08:39:16;6.80;;;2.00;;
54263;SDS011;40178;53.042;6.406;2023-12-20T08:41:42;15.18;;;3.22;;
54263;SDS011;40178;53.042;6.406;2023-12-20T08:44:08;14.60;;;2.47;;
54263;SDS011;40178;53.042;6.406;2023-12-20T08:46:34;13.82;;;3.40;;
54263;SDS011;40178;53.042;6.406;2023-12-20T08:49:00;14.95;;;3.13;;
54263;SDS011;40178;53.042;6.406;2023-12-20T08:51:26;11.48;;;2.42;;
54263;SDS011;40178;53.042;6.406;2023-12-20T08:53:52;16.27;;;3.47;;
54263;SDS011;40178;53.042;6.406;2023-12-20T08:56:18;15.30;;;3.38;;
54263;SDS011;40178;53.042;6.406;2023-12-20T08:58:45;15.10;;;3.65;;
54263;SDS011;40178;53.042;6.406;2023-12-20T09:01:11;20.83;;;3.80;;
54263;SDS011;40178;53.042;6.406;2023-12-20T09:03:36;20.05;;;4.40;;
54263;SDS011;40178;53.042;6.406;2023-12-20T09:06:02;16.02;;;3.47;;
54263;SDS011;40178;53.042;6.406;2023-12-20T09:08:28;15.05;;;4.05;;
54263;SDS011;40178;53.042;6.406;2023-12-20T09:10:53;12.75;;;3.63;;
54263;SDS011;40178;53.042;6.406;2023-12-20T09:13:19;20.83;;;4.55;;
54263;SDS011;40178;53.042;6.406;2023-12-20T09:15:45;16.48;;;3.65;;
54263;SDS011;40178;53.042;6.406;2023-12-20T09:18:11;14.93;;;3.13;;
54263;SDS011;40178;53.042;6.406;2023-12-20T09:20:37;12.98;;;3.08;;
54263;SDS011;40178;53.042;6.406;2023-12-20T09:23:03;12.45;;;2.88;;
54263;SDS011;40178;53.042;6.406;2023-12-20T09:25:28;10.20;;;1.73;;
54263;SDS011;40178;53.042;6.406;2023-12-20T09:27:54;10.18;;;1.63;;
54263;SDS011;40178;53.042;6.406;2023-12-20T09:30:20;6.30;;;1.27;;
54263;SDS011;40178;53.042;6.406;2023-12-20T09:32:46;5.75;;;0.90;;
54263;SDS011;40178;53.042;6.406;2023-12-20T09:35:11;4.55;;;0.70;;
54263;SDS011;40178;53.042;6.406;2023-12-20T09:37:37;7.40;;;0.60;;
54263;SDS011;40178;53.042;6.406;2023-12-20T09:40:03;5.43;;;0.63;;
54263;SDS011;40178;53.042;6.406;2023-12-20T09:42:32;7.65;;;1.13;;
54263;SDS011;40178;53.042;6.406;2023-12-20T09:45:08;8.80;;;1.17;;
54263;SDS011;40178;53.042;6.406;2023-12-20T09:47:35;4.75;;;0.70;;
54263;SDS011;40178;53.042;6.406;2023-12-20T09:50:01;8.20;;;1.20;;
54263;SDS011;40178;53.042;6.406;2023-12-20T09:52:27;3.30;;;0.60;;
54263;SDS011;40178;53.042;6.406;2023-12-20T09:54:54;5.50;;;1.00;;
54263;SDS011;40178;53.042;6.406;2023-12-20T09:57:22;7.13;;;1.10;;
54263;SDS011;40178;53.042;6.406;2023-12-20T09:59:47;6.10;;;1.00;;
54263;SDS011;40178;53.042;6.406;2023-12-20T10:02:13;7.78;;;1.13;;
54263;SDS011;40178;53.042;6.406;2023-12-20T10:04:46;10.77;;;1.90;;
54263;SDS011;40178;53.042;6.406;2023-12-20T10:07:15;10.45;;;1.75;;
54263;SDS011;40178;53.042;6.406;2023-12-20T10:09:41;8.65;;;1.38;;
54263;SDS011;40178;53.042;6.406;2023-12-20T10:12:07;4.45;;;1.08;;
54263;SDS011;40178;53.042;6.406;2023-12-20T10:14:33;7.88;;;1.23;;
54263;SDS011;40178;53.042;6.406;2023-12-20T10:17:02;8.93;;;1.30;;
54263;SDS011;40178;53.042;6.406;2023-12-20T10:19:29;7.30;;;1.30;;
54263;SDS011;40178;53.042;6.406;2023-12-20T10:21:56;9.07;;;1.70;;
54263;SDS011;40178;53.042;6.406;2023-12-20T10:24:22;10.82;;;1.35;;
54263;SDS011;40178;53.042;6.406;2023-12-20T10:26:48;6.88;;;1.40;;
54263;SDS011;40178;53.042;6.406;2023-12-20T10:29:31;10.25;;;1.27;;
54263;SDS011;40178;53.042;6.406;2023-12-20T10:31:57;7.47;;;1.33;;
54263;SDS011;40178;53.042;6.406;2023-12-20T10:34:23;8.18;;;1.00;;
54263;SDS011;40178;53.042;6.406;2023-12-20T10:36:49;7.20;;;1.52;;
54263;SDS011;40178;53.042;6.406;2023-12-20T10:39:15;8.82;;;1.27;;
54263;SDS011;40178;53.042;6.406;2023-12-20T10:41:42;7.50;;;1.40;;
54263;SDS011;40178;53.042;6.406;2023-12-20T10:44:09;8.10;;;1.15;;
54263;SDS011;40178;53.042;6.406;2023-12-20T10:46:36;6.63;;;1.40;;
54263;SDS011;40178;53.042;6.406;2023-12-20T10:49:05;8.73;;;1.30;;
54263;SDS011;40178;53.042;6.406;2023-12-20T10:51:32;6.95;;;1.40;;
54263;SDS011;40178;53.042;6.406;2023-12-20T10:54:00;6.63;;;1.35;;
54263;SDS011;40178;53.042;6.406;2023-12-20T10:56:25;8.60;;;1.30;;
54263;SDS011;40178;53.042;6.406;2023-12-20T10:58:57;6.35;;;1.33;;
54263;SDS011;40178;53.042;6.406;2023-12-20T11:01:27;13.10;;;1.88;;
54263;SDS011;40178;53.042;6.406;2023-12-20T11:03:55;12.65;;;1.75;;
54263;SDS011;40178;53.042;6.406;2023-12-20T11:06:40;5.47;;;1.33;;
54263;SDS011;40178;53.042;6.406;2023-12-20T11:09:23;9.07;;;1.40;;
54263;SDS011;40178;53.042;6.406;2023-12-20T11:12:02;9.90;;;1.70;;
54263;SDS011;40178;53.042;6.406;2023-12-20T11:14:51;6.32;;;1.08;;
54263;SDS011;40178;53.042;6.406;2023-12-20T11:17:21;7.47;;;2.03;;
54263;SDS011;40178;53.042;6.406;2023-12-20T11:20:07;8.93;;;1.33;;
54263;SDS011;40178;53.042;6.406;2023-12-20T11:22:35;7.65;;;1.55;;
54263;SDS011;40178;53.042;6.406;2023-12-20T11:25:03;7.80;;;1.58;;
54263;SDS011;40178;53.042;6.406;2023-12-20T11:27:31;9.73;;;1.25;;
54263;SDS011;40178;53.042;6.406;2023-12-20T11:29:58;8.88;;;1.48;;
54263;SDS011;40178;53.042;6.406;2023-12-20T11:34:50;7.55;;;1.42;;
54263;SDS011;40178;53.042;6.406;2023-12-20T11:37:16;7.28;;;1.85;;
54263;SDS011;40178;53.042;6.406;2023-12-20T11:39:44;9.02;;;1.55;;
54263;SDS011;40178;53.042;6.406;2023-12-20T11:42:09;7.30;;;2.15;;
54263;SDS011;40178;53.042;6.406;2023-12-20T11:44:36;12.95;;;2.45;;
54263;SDS011;40178;53.042;6.406;2023-12-20T11:47:02;9.45;;;1.70;;
54263;SDS011;40178;53.042;6.406;2023-12-20T11:49:28;11.27;;;1.77;;
54263;SDS011;40178;53.042;6.406;2023-12-20T11:51:56;8.15;;;1.52;;
54263;SDS011;40178;53.042;6.406;2023-12-20T11:54:22;10.68;;;2.00;;
54263;SDS011;40178;53.042;6.406;2023-12-20T11:56:47;8.25;;;1.30;;
54263;SDS011;40178;53.042;6.406;2023-12-20T11:59:13;7.40;;;1.58;;
54263;SDS011;40178;53.042;6.406;2023-12-20T12:01:39;10.55;;;1.60;;
54263;SDS011;40178;53.042;6.406;2023-12-20T12:04:05;10.95;;;1.73;;
54263;SDS011;40178;53.042;6.406;2023-12-20T12:06:31;11.60;;;1.50;;
54263;SDS011;40178;53.042;6.406;2023-12-20T12:08:57;11.55;;;1.88;;
54263;SDS011;40178;53.042;6.406;2023-12-20T12:11:23;9.50;;;1.55;;
54263;SDS011;40178;53.042;6.406;2023-12-20T12:13:51;6.75;;;1.35;;
54263;SDS011;40178;53.042;6.406;2023-12-20T12:16:17;11.10;;;1.77;;
54263;SDS011;40178;53.042;6.406;2023-12-20T12:18:44;7.63;;;1.48;;
54263;SDS011;40178;53.042;6.406;2023-12-20T12:21:10;8.05;;;2.15;;
54263;SDS011;40178;53.042;6.406;2023-12-20T12:23:43;9.52;;;1.55;;
54263;SDS011;40178;53.042;6.406;2023-12-20T12:26:09;6.97;;;1.50;;
54263;SDS011;40178;53.042;6.406;2023-12-20T12:28:34;10.75;;;1.88;;
54263;SDS011;40178;53.042;6.406;2023-12-20T12:31:00;10.80;;;1.60;;
54263;SDS011;40178;53.042;6.406;2023-12-20T12:33:26;16.20;;;2.60;;
54263;SDS011;40178;53.042;6.406;2023-12-20T12:35:52;8.98;;;2.08;;
54263;SDS011;40178;53.042;6.406;2023-12-20T12:38:21;15.50;;;2.05;;
54263;SDS011;40178;53.042;6.406;2023-12-20T12:40:47;10.20;;;1.70;;
54263;SDS011;40178;53.042;6.406;2023-12-20T12:43:14;7.65;;;1.65;;
54263;SDS011;40178;53.042;6.406;2023-12-20T12:45:40;15.40;;;2.67;;
54263;SDS011;40178;53.042;6.406;2023-12-20T12:48:06;9.10;;;1.70;;
54263;SDS011;40178;53.042;6.406;2023-12-20T12:50:32;9.88;;;2.00;;
54263;SDS011;40178;53.042;6.406;2023-12-20T12:52:57;9.77;;;1.85;;
54263;SDS011;40178;53.042;6.406;2023-12-20T12:55:23;11.02;;;2.15;;
54263;SDS011;40178;53.042;6.406;2023-12-20T12:57:49;11.07;;;2.25;;
54263;SDS011;40178;53.042;6.406;2023-12-20T13:00:14;12.10;;;2.30;;
54263;SDS011;40178;53.042;6.406;2023-12-20T13:02:40;8.55;;;2.40;;
54263;SDS011;40178;53.042;6.406;2023-12-20T13:05:09;10.32;;;2.10;;
54263;SDS011;40178;53.042;6.406;2023-12-20T13:07:34;12.27;;;2.38;;
54263;SDS011;40178;53.042;6.406;2023-12-20T13:10:00;10.98;;;1.73;;
54263;SDS011;40178;53.042;6.406;2023-12-20T13:12:26;7.15;;;1.52;;
54263;SDS011;40178;53.042;6.406;2023-12-20T13:14:52;7.22;;;1.40;;
54263;SDS011;40178;53.042;6.406;2023-12-20T13:17:18;8.18;;;1.33;;
54263;SDS011;40178;53.042;6.406;2023-12-20T13:19:44;10.55;;;1.83;;
54263;SDS011;40178;53.042;6.406;2023-12-20T13:22:10;5.28;;;0.95;;
54263;SDS011;40178;53.042;6.406;2023-12-20T13:24:35;8.50;;;1.58;;
54263;SDS011;40178;53.042;6.406;2023-12-20T13:27:01;8.10;;;1.73;;
54263;SDS011;40178;53.042;6.406;2023-12-20T13:29:27;7.78;;;1.00;;
54263;SDS011;40178;53.042;6.406;2023-12-20T13:31:52;6.18;;;1.20;;
54263;SDS011;40178;53.042;6.406;2023-12-20T13:34:18;12.07;;;1.40;;
54263;SDS011;40178;53.042;6.406;2023-12-20T13:36:44;9.18;;;1.40;;
54263;SDS011;40178;53.042;6.406;2023-12-20T13:39:12;11.02;;;1.80;;
54263;SDS011;40178;53.042;6.406;2023-12-20T13:41:38;9.32;;;1.65;;
54263;SDS011;40178;53.042;6.406;2023-12-20T13:44:04;9.77;;;1.10;;
54263;SDS011;40178;53.042;6.406;2023-12-20T13:46:30;8.77;;;1.20;;
54263;SDS011;40178;53.042;6.406;2023-12-20T13:48:56;8.48;;;1.48;;
54263;SDS011;40178;53.042;6.406;2023-12-20T13:51:22;5.63;;;1.05;;
54263;SDS011;40178;53.042;6.406;2023-12-20T13:53:48;5.93;;;1.45;;
54263;SDS011;40178;53.042;6.406;2023-12-20T13:56:16;7.85;;;1.60;;
54263;SDS011;40178;53.042;6.406;2023-12-20T13:58:42;12.10;;;1.70;;
54263;SDS011;40178;53.042;6.406;2023-12-20T14:01:08;4.78;;;0.98;;
54263;SDS011;40178;53.042;6.406;2023-12-20T14:03:35;10.18;;;1.35;;
54263;SDS011;40178;53.042;6.406;2023-12-20T14:06:01;7.53;;;1.48;;
54263;SDS011;40178;53.042;6.406;2023-12-20T14:08:26;7.15;;;1.30;;
54263;SDS011;40178;53.042;6.406;2023-12-20T14:10:52;8.73;;;1.83;;
54263;SDS011;40178;53.042;6.406;2023-12-20T14:13:18;7.82;;;1.30;;
54263;SDS011;40178;53.042;6.406;2023-12-20T14:15:44;8.07;;;1.20;;
54263;SDS011;40178;53.042;6.406;2023-12-20T14:18:09;8.68;;;1.58;;
54263;SDS011;40178;53.042;6.406;2023-12-20T14:20:37;9.15;;;1.52;;
54263;SDS011;40178;53.042;6.406;2023-12-20T14:23:04;5.95;;;1.50;;
54263;SDS011;40178;53.042;6.406;2023-12-20T14:25:30;5.72;;;0.90;;
54263;SDS011;40178;53.042;6.406;2023-12-20T14:27:58;10.68;;;1.23;;
54263;SDS011;40178;53.042;6.406;2023-12-20T14:30:25;3.58;;;0.98;;
54263;SDS011;40178;53.042;6.406;2023-12-20T14:32:50;6.20;;;1.13;;
54263;SDS011;40178;53.042;6.406;2023-12-20T14:35:16;6.50;;;1.05;;